Search for airport 
image banner adimage banner ad
image banner ad

WAJJ - Jayapura/ Sentani

Located in Irian Jaya, Indonesia

ICAO - WAJJ, IATA - DJJ

Data provided by Airmate  

General information

Coordinates: S2°34'19" E140°30'42"
Elevation is 289 feet MSL.
 
Rated:
View ratings: [VIEW]


View others Airports in Papua

Operational data

Open for public use
Current time UTC:
Current local time:
Weather
METAR: WAJJ 211700Z 36002KT 9999 SCT013 24/21 Q1011 NOSIG
View NOTAMs / SUP AIP / TFR affecting this airport [VIEW]
Communications frequencies: [VIEW]

Runways:

RWY identifierQFULength (ft)Width (ft)SurfaceLDA (ft)
12127°9843148ASP
30307°9843148

Airport contact information

Address: Irian Jaya Indonesia

Satellite view of WAJJ